Accueil
METAR-TAF:

METAR-TAF

Aéroports :

Aéroport de Deauville-Normandie

Deauville, France

latitude: 49-21-55N, longitude: 000-09-16E, altitude: 146 m

Observation

Le bulletin a été fait il y a 10 minutes, à 08:00 UTC
Vent 7 kt de ouest/nord-ouest, variant entre ouest/sud-ouest et nord-ouest
Température 13°C
Humidité 88%
Pression 1014 hPa
Visibilité 10 km ou plus
Ciel couvert à une hauteur de 900 ft

METAR: LFRG 270800Z AUTO 29007KT 250V310 9999 OVC009 13/11 Q1014 BECMG BKN030

Heure: 10:10 (08:10 UTC)

Prévision

Le bulletin a été fait il y a 3 heures et 10 minutes, à 05:00 UTC
Prévision valable du 27 à 06 UTC au 27 à 15 UTC
Vent 10 kt de ouest
Visibilité 10 km ou plus
Nuages fragmentés à une hauteur de 3000 ft
Temporairement
du 27 à 06 UTC au 27 à 09 UTC
Nuages fragmentés à une hauteur de 800 ft

TAF: LFRG 270500Z 2706/2715 27010KT 9999 BKN030 TEMPO 2706/2709 BKN008

Observations et prévisions météorologiques de plus de 4000 aéroports (messages METAR et TAF).

Les stations disponibles sont représentées par des disques jaunes et rouges sur la carte.

Passer la souris dessus pour voir le nom de la station.

Cliquer dessus pour voir les observations et prévisions météorologiques.

Pour changer de carte: cliquez sur les boutons verts avec une croix noire pour zoomer, sur le bouton vert avec un tiret pour effectuer un zoom arrière, ou sur les flèches vertes pour les cartes adjacentes.


METAR-TAF: